Terminal Aerodrome Forecast
Issued by NWS

Home | Current Version | Previous Version | Text Only | Print | Product List | Glossary On
Versions: 1 2 3 4 5 6 7 8 9 10 11 12 13 14 15 16
000
FTUS41 KBTV 202326
TAFPBG
TAF
KPBG 202326Z 2100/2124 27009KT P6SM OVC080
     FM210400 30005KT P6SM VCSH OVC040
     FM210800 34005KT P6SM OVC030
     FM211200 03004KT P6SM OVC028=

USA.gov is the U.S. government's official web portal to all federal, state and local government web resources and services.